Time;durP1;ratioP1;P1;durP2;ratioP2;P2;SDS_P1;SDS_P2;PMS_P1;PMS_P2;Temp;Humidity;BMP_temperature;BMP_pressure;BME280_temperature;BME280_humidity;BME280_pressure;Samples;Min_cycle;Max_cycle;Signal;HPM_P1;HPM_P2
2019/08/19 00:01:55;;;;;;;4.1;3.3;;;;;;;21.58;68.28906;937.5239;;;;
2019/08/19 00:04:21;;;;;;;6.5;3.3;;;;;;;21.52;68.45508;937.5747;;;;
2019/08/19 00:06:58;;;;;;;6;3.1;;;;;;;21.55;69.41895;937.5178;;;;
2019/08/19 00:09:31;;;;;;;4.7;3.2;;;;;;;21.54;69.14844;937.6057;;;;
2019/08/19 00:12:00;;;;;;;5.6;3.2;;;;;;;21.47;69.59375;937.6794;;;;
2019/08/19 00:14:45;;;;;;;8.9;3.6;;;;;;;21.54;69.54688;937.7043;;;;
2019/08/19 00:17:12;;;;;;;4.8;3.2;;;;;;;21.57;69.92578;937.7553;;;;
2019/08/19 00:19:52;;;;;;;5.3;3.3;;;;;;;21.6;69.68359;937.8047;;;;
2019/08/19 00:22:25;;;;;;;5.6;3.6;;;;;;;21.41;71.21191;937.7919;;;;
2019/08/19 00:24:51;;;;;;;8.3;3.5;;;;;;;21.37;71.79199;937.79;;;;
2019/08/19 00:27:26;;;;;;;8.2;3.5;;;;;;;21.38;71.26465;937.8442;;;;
2019/08/19 00:29:57;;;;;;;5.3;3.6;;;;;;;21.39;72.19141;937.9807;;;;
2019/08/19 00:32:32;;;;;;;6.9;3.5;;;;;;;21.14;72.27832;938.1105;;;;
2019/08/19 00:35:04;;;;;;;7.5;3.8;;;;;;;21.12;73.07129;938.1507;;;;
2019/08/19 00:37:36;;;;;;;5.9;3.8;;;;;;;21.04;73.8877;938.2034;;;;
2019/08/19 00:40:07;;;;;;;10.3;4.5;;;;;;;20.99;74.80469;938.1398;;;;
2019/08/19 00:42:41;;;;;;;15.7;5.9;;;;;;;21;77.13281;938.147;;;;
2019/08/19 00:45:06;;;;;;;8.1;4.4;;;;;;;21.02;77.5918;938.262;;;;
2019/08/19 00:47:38;;;;;;;9.8;4.9;;;;;;;21.02;77.27637;938.3714;;;;
2019/08/19 00:50:10;;;;;;;5.6;4.1;;;;;;;20.41;77.88184;938.4662;;;;
2019/08/19 00:52:41;;;;;;;8.3;4.7;;;;;;;20.54;78.48926;938.4313;;;;
2019/08/19 00:55:26;;;;;;;5.9;3.7;;;;;;;20.37;77.79297;938.2929;;;;
2019/08/19 00:58:02;;;;;;;5.6;3.2;;;;;;;20.27;76.12988;938.3717;;;;
2019/08/19 01:00:39;;;;;;;6.7;3.1;;;;;;;20.44;76.03125;938.4056;;;;
2019/08/19 01:03:06;;;;;;;3.9;2.9;;;;;;;20.42;76.61035;938.44;;;;
2019/08/19 01:05:54;;;;;;;5.3;3;;;;;;;20.37;76.41602;938.6481;;;;
2019/08/19 01:08:31;;;;;;;6;3.6;;;;;;;20.31;78.09961;938.7823;;;;
2019/08/19 01:10:54;;;;;;;3.3;2.6;;;;;;;20.28;74.91699;938.8187;;;;
2019/08/19 01:13:28;;;;;;;3.9;2.2;;;;;;;20.39;74.83203;938.9037;;;;
2019/08/19 01:18:24;;;;;;;3.9;2.1;;;;;;;20.46;74.42188;939.007;;;;
2019/08/19 01:20:48;;;;;;;3.5;2.4;;;;;;;20.64;73.0625;939.1714;;;;
2019/08/19 01:23:31;;;;;;;2.8;2.1;;;;;;;20.71;71.54297;939.2342;;;;
2019/08/19 01:26:03;;;;;;;4.3;2;;;;;;;20.63;71.17969;939.2542;;;;
2019/08/19 01:28:27;;;;;;;2;1.7;;;;;;;20.72;70.57422;939.2929;;;;
2019/08/19 01:30:56;;;;;;;1.9;1.5;;;;;;;20.84;70.64063;939.1636;;;;
2019/08/19 01:33:25;;;;;;;3.2;1.7;;;;;;;20.92;71.79883;939.1646;;;;
2019/08/19 01:36:19;;;;;;;3.8;1.5;;;;;;;20.95;70.60059;939.2341;;;;
2019/08/19 01:38:43;;;;;;;3.4;1.7;;;;;;;20.69;70.88477;939.2922;;;;
2019/08/19 01:41:20;;;;;;;2.5;1.5;;;;;;;20.83;70.42871;939.3073;;;;
2019/08/19 01:43:53;;;;;;;3.2;1.9;;;;;;;20.93;71.67188;939.3867;;;;
2019/08/19 01:46:28;;;;;;;2.6;1.7;;;;;;;20.92;71.50684;939.3014;;;;
2019/08/19 01:48:59;;;;;;;1.9;1.4;;;;;;;20.96;68.8584;939.3269;;;;
2019/08/19 01:51:32;;;;;;;2.4;1.3;;;;;;;21.07;68.78418;939.3311;;;;
2019/08/19 01:54:27;;;;;;;3.2;1.3;;;;;;;21.05;68.17188;939.4119;;;;
2019/08/19 01:56:57;;;;;;;1.5;1.3;;;;;;;20.83;69.13086;939.5345;;;;
2019/08/19 01:59:22;;;;;;;1.9;1.3;;;;;;;20.87;68.45996;939.5659;;;;
2019/08/19 02:01:55;;;;;;;2.7;1.3;;;;;;;21.02;66.95117;939.6262;;;;
2019/08/19 02:04:31;;;;;;;2.2;0.8;;;;;;;20.93;63.69824;939.5609;;;;
2019/08/19 02:07:02;;;;;;;1.3;1;;;;;;;20.97;65.83203;939.5331;;;;
2019/08/19 02:09:26;;;;;;;0.8;0.7;;;;;;;20.86;66.00293;939.545;;;;
2019/08/19 02:12:01;;;;;;;1;0.7;;;;;;;20.93;66.45703;939.4645;;;;
2019/08/19 02:14:35;;;;;;;1;0.8;;;;;;;21.02;65.15039;939.4606;;;;
2019/08/19 02:17:25;;;;;;;0.8;0.7;;;;;;;20.9;65.2959;939.5325;;;;
2019/08/19 02:20:00;;;;;;;1.1;0.8;;;;;;;20.89;66.41699;939.5854;;;;
2019/08/19 02:22:35;;;;;;;2.4;0.9;;;;;;;20.84;67.14453;939.587;;;;
2019/08/19 02:25:13;;;;;;;1.5;1;;;;;;;20.94;67.68652;939.6489;;;;
2019/08/19 02:27:38;;;;;;;2.1;0.9;;;;;;;21.04;67.46777;939.6747;;;;
2019/08/19 02:30:15;;;;;;;1.4;0.9;;;;;;;21;67.64941;939.6325;;;;
2019/08/19 02:32:47;;;;;;;1.4;0.9;;;;;;;21.01;68.82031;939.6145;;;;
2019/08/19 02:35:10;;;;;;;2;1;;;;;;;20.98;68.68652;939.5034;;;;
2019/08/19 02:37:44;;;;;;;1.8;1.1;;;;;;;20.93;68.5498;939.4922;;;;
2019/08/19 02:40:27;;;;;;;1.7;1.1;;;;;;;20.76;69.17773;939.5095;;;;
2019/08/19 02:42:49;;;;;;;2.1;1.1;;;;;;;20.78;69.4043;939.4813;;;;
2019/08/19 02:45:43;;;;;;;1.6;1;;;;;;;20.81;69.57227;939.5405;;;;
2019/08/19 02:48:13;;;;;;;1.1;1;;;;;;;20.8;70.21387;939.6014;;;;
2019/08/19 02:50:41;;;;;;;2.6;1;;;;;;;20.85;70.2793;939.5544;;;;
2019/08/19 02:53:09;;;;;;;1.2;1;;;;;;;20.83;70.25293;939.5581;;;;
2019/08/19 02:55:37;;;;;;;1.1;0.9;;;;;;;20.8;70.63574;939.4361;;;;
2019/08/19 02:58:14;;;;;;;2.3;1.1;;;;;;;20.84;71.2959;939.463;;;;
2019/08/19 03:00:53;;;;;;;1.6;0.9;;;;;;;20.93;70.28027;939.5051;;;;
2019/08/19 03:03:28;;;;;;;1.6;1.1;;;;;;;20.93;71.49609;939.5722;;;;
2019/08/19 03:06:05;;;;;;;2.1;1.2;;;;;;;20.88;69.84082;939.5444;;;;
2019/08/19 03:08:31;;;;;;;1.7;1.2;;;;;;;20.93;70.08203;939.476;;;;
2019/08/19 03:11:08;;;;;;;2.4;1.3;;;;;;;20.93;70.37402;939.3828;;;;
2019/08/19 03:13:36;;;;;;;3;1.4;;;;;;;20.92;71.2373;939.3555;;;;
2019/08/19 03:16:01;;;;;;;2.4;1.5;;;;;;;20.57;72.86523;939.3727;;;;
2019/08/19 03:18:35;;;;;;;2.5;1.5;;;;;;;20.67;72.21484;939.3777;;;;
2019/08/19 03:21:06;;;;;;;2.9;1.4;;;;;;;20.62;72.79004;939.3658;;;;
2019/08/19 03:23:43;;;;;;;4.4;1.6;;;;;;;20.57;73.22559;939.3567;;;;
2019/08/19 03:26:11;;;;;;;3.9;1.7;;;;;;;20.39;74.09668;939.3917;;;;
2019/08/19 03:28:54;;;;;;;3.6;1.7;;;;;;;20.36;75.30664;939.39;;;;
2019/08/19 03:31:24;;;;;;;3.6;1.8;;;;;;;20.5;74.48828;939.3617;;;;
2019/08/19 03:33:50;;;;;;;2.9;1.8;;;;;;;20.59;74.28125;939.3851;;;;
2019/08/19 03:36:16;;;;;;;2.2;1.5;;;;;;;20.63;74.01855;939.4709;;;;
2019/08/19 03:38:48;;;;;;;1.8;1.5;;;;;;;20.58;73.95117;939.4269;;;;
2019/08/19 03:41:19;;;;;;;3.5;1.7;;;;;;;20.56;74.1582;939.4459;;;;
2019/08/19 03:43:49;;;;;;;2.3;1.6;;;;;;;20.62;74.09863;939.4709;;;;
2019/08/19 03:46:17;;;;;;;4.1;1.7;;;;;;;20.69;74.19336;939.4484;;;;
2019/08/19 03:48:45;;;;;;;2.7;1.5;;;;;;;20.67;75.16016;939.4821;;;;
2019/08/19 03:54:02;;;;;;;5.5;1.5;;;;;;;20.64;74.16211;939.4601;;;;
2019/08/19 03:57:16;;;;;;;3.9;1.7;;;;;;;20.72;74.15039;939.4662;;;;
2019/08/19 03:59:39;;;;;;;3;1.8;;;;;;;20.51;74.29102;939.5137;;;;
2019/08/19 04:02:57;;;;;;;4;1.8;;;;;;;20.54;75.18555;939.6389;;;;
2019/08/19 04:05:35;;;;;;;6.7;2.2;;;;;;;20.52;76.0918;939.7311;;;;
2019/08/19 04:08:08;;;;;;;5.2;2.5;;;;;;;20.37;76.97559;939.7555;;;;
2019/08/19 04:10:42;;;;;;;3.5;2;;;;;;;20.28;76.59961;939.7366;;;;
2019/08/19 04:13:11;;;;;;;5.7;2.5;;;;;;;20.22;78.99219;939.7015;;;;
2019/08/19 04:15:40;;;;;;;4.4;2;;;;;;;20.14;78.27734;939.8337;;;;
2019/08/19 04:18:23;;;;;;;5.5;2.2;;;;;;;20.08;78.32617;939.7034;;;;
2019/08/19 04:20:53;;;;;;;5.2;2.5;;;;;;;20.01;79.94727;939.7492;;;;
2019/08/19 04:23:23;;;;;;;5.5;2.1;;;;;;;20.02;80.06641;939.7444;;;;
2019/08/19 04:25:39;;;;;;;3.8;2.1;;;;;;;19.82;82.09473;939.7344;;;;
2019/08/19 04:28:09;;;;;;;5.7;2.5;;;;;;;19.81;82.60449;939.7181;;;;
2019/08/19 04:30:43;;;;;;;6.2;2.5;;;;;;;19.92;82.60352;939.7118;;;;
2019/08/19 04:33:49;;;;;;;9.1;2.9;;;;;;;19.91;82.37891;939.7072;;;;
2019/08/19 04:36:41;;;;;;;5.1;2.5;;;;;;;19.83;82.90137;939.7941;;;;
2019/08/19 04:38:55;;;;;;;5;2.5;;;;;;;19.42;83.58105;939.7693;;;;
2019/08/19 04:41:30;;;;;;;7.2;2.6;;;;;;;19.53;84.61523;939.8091;;;;
2019/08/19 04:44:10;;;;;;;6.5;2.5;;;;;;;19.59;83.50879;939.774;;;;
2019/08/19 04:46:35;;;;;;;5.3;2.3;;;;;;;19.67;83.2793;939.7167;;;;
2019/08/19 04:49:07;;;;;;;5.5;2.3;;;;;;;19.63;82.25684;939.7717;;;;
2019/08/19 04:51:36;;;;;;;4.1;2.3;;;;;;;19.49;82.30078;939.7961;;;;
2019/08/19 04:54:03;;;;;;;4.9;2.3;;;;;;;19.51;82.64258;939.7536;;;;
2019/08/19 04:56:29;;;;;;;7.3;2.5;;;;;;;19.56;82.59473;939.7197;;;;
2019/08/19 04:59:30;;;;;;;3.5;2.1;;;;;;;19.53;81.98145;939.6702;;;;
2019/08/19 05:02:10;;;;;;;6;2;;;;;;;19.54;82.03125;939.6498;;;;
2019/08/19 05:04:29;;;;;;;4.6;2.3;;;;;;;19.57;82.84082;939.6599;;;;
2019/08/19 05:06:55;;;;;;;4.5;2.3;;;;;;;19.37;83.1416;939.6781;;;;
2019/08/19 05:09:20;;;;;;;4.1;2.2;;;;;;;19.4;82.61035;939.6258;;;;
2019/08/19 05:11:48;;;;;;;3.3;1.9;;;;;;;19.3;82.8252;939.6078;;;;
2019/08/19 05:14:29;;;;;;;5.1;2.2;;;;;;;19.27;83.83301;939.632;;;;
2019/08/19 05:17:04;;;;;;;6.5;2;;;;;;;19.15;82.10938;939.6044;;;;
2019/08/19 05:19:36;;;;;;;5;2.4;;;;;;;19.14;84.17969;939.6127;;;;
2019/08/19 05:22:08;;;;;;;4.1;2.2;;;;;;;19.01;84.40039;939.6739;;;;
2019/08/19 05:24:34;;;;;;;4.3;2.2;;;;;;;19.1;84.4043;939.662;;;;
2019/08/19 05:27:05;;;;;;;3.7;1.7;;;;;;;19.05;83.24316;939.7137;;;;
2019/08/19 05:29:35;;;;;;;4.4;2;;;;;;;18.93;85.07129;939.817;;;;
2019/08/19 05:32:02;;;;;;;3.4;2;;;;;;;18.71;85.17969;939.7872;;;;
2019/08/19 05:34:36;;;;;;;3.7;1.8;;;;;;;18.78;84.44824;939.7704;;;;
2019/08/19 05:37:17;;;;;;;4.7;2;;;;;;;18.77;85.0166;939.798;;;;
2019/08/19 05:39:53;;;;;;;3.3;1.6;;;;;;;18.53;85.39063;939.86;;;;
2019/08/19 05:42:43;;;;;;;3.2;1.7;;;;;;;18.48;85.58887;939.8304;;;;
2019/08/19 05:47:49;;;;;;;3.9;1.8;;;;;;;18.71;86.40039;940.0056;;;;
2019/08/19 05:50:24;;;;;;;3.7;2.1;;;;;;;18.65;87.25098;940.0197;;;;
2019/08/19 05:52:58;;;;;;;5.4;2.3;;;;;;;18.76;86.91211;940.0798;;;;
2019/08/19 05:56:01;;;;;;;4.7;2.7;;;;;;;18.76;87.12109;940.0369;;;;
2019/08/19 05:58:05;;;;;;;4.7;2.2;;;;;;;18.72;87.32324;939.9894;;;;
2019/08/19 06:00:29;;;;;;;5.1;2.3;;;;;;;18.75;87.27051;940.0025;;;;
2019/08/19 06:02:57;;;;;;;4.1;2.1;;;;;;;18.71;87.61035;940.0017;;;;
2019/08/19 06:05:26;;;;;;;4;2.4;;;;;;;18.82;86.72656;940.057;;;;
2019/08/19 06:08:16;;;;;;;6.5;2.2;;;;;;;18.78;87.33594;940.0978;;;;
2019/08/19 06:10:50;;;;;;;4.1;2.1;;;;;;;18.88;87.45898;940.2037;;;;
2019/08/19 06:13:19;;;;;;;3.7;2.1;;;;;;;18.88;86.85547;940.1995;;;;
2019/08/19 06:15:46;;;;;;;5.8;2.2;;;;;;;18.94;86.52832;940.1839;;;;
2019/08/19 06:18:20;;;;;;;5.9;2.6;;;;;;;18.94;86.86621;940.2493;;;;
2019/08/19 06:20:47;;;;;;;5.3;2.4;;;;;;;18.68;87.44434;940.3506;;;;
2019/08/19 06:23:17;;;;;;;5.2;2.8;;;;;;;18.62;88.11816;940.4233;;;;
2019/08/19 06:25:52;;;;;;;7.3;3.2;;;;;;;18.81;88.84082;940.4758;;;;
2019/08/19 06:28:25;;;;;;;6.9;3.7;;;;;;;19.01;86.91504;940.5078;;;;
2019/08/19 06:31:45;;;;;;;7.1;3.4;;;;;;;19.28;86.02344;940.5846;;;;
2019/08/19 06:34:17;;;;;;;5.6;2.5;;;;;;;19.22;85.45313;940.642;;;;
2019/08/19 06:36:44;;;;;;;5.7;2.3;;;;;;;19.15;85.8125;940.7766;;;;
2019/08/19 06:39:16;;;;;;;4.8;2.1;;;;;;;19.18;85.68945;940.8019;;;;
2019/08/19 06:41:42;;;;;;;4;2.5;;;;;;;19.19;85.88867;940.8526;;;;
2019/08/19 06:44:12;;;;;;;2.9;1.7;;;;;;;19.2;85.05371;940.9105;;;;
2019/08/19 06:46:37;;;;;;;3.9;1.7;;;;;;;;;;;;;
2019/08/19 06:49:08;;;;;;;2.8;1.6;;;;;;;;;;;;;
2019/08/19 06:51:28;;;;;;;3.9;2.1;;;;;;;;;;;;;
2019/08/19 06:53:54;;;;;;;3;1.7;;;;;;;;;;;;;
2019/08/19 06:56:20;;;;;;;3.3;1.8;;;;;;;;;;;;;
2019/08/19 07:01:31;;;;;;;2.2;1.6;;;;;;;;;;;;;
2019/08/19 07:03:55;;;;;;;2.1;1.3;;;;;;;;;;;;;
2019/08/19 07:06:19;;;;;;;3.8;1.5;;;;;;;;;;;;;
2019/08/19 07:08:45;;;;;;;1.9;1.4;;;;;;;;;;;;;
2019/08/19 07:11:15;;;;;;;2.7;1.5;;;;;;;;;;;;;
2019/08/19 07:16:29;;;;;;;5.7;1.8;;;;;;;;;;;;;
2019/08/19 07:18:55;;;;;;;2.2;1.6;;;;;;;;;;;;;
2019/08/19 07:22:24;;;;;;;4.9;1.9;;;;;;;;;;;;;
2019/08/19 07:26:24;;;;;;;3.1;1.5;;;;;;;;;;;;;
2019/08/19 07:28:57;;;;;;;2.4;1.3;;;;;;;;;;;;;
2019/08/19 07:31:24;;;;;;;2.9;1.4;;;;;;;;;;;;;
2019/08/19 07:33:50;;;;;;;3.1;1.4;;;;;;;;;;;;;
2019/08/19 07:36:14;;;;;;;1.6;1.2;;;;;;;;;;;;;
2019/08/19 07:38:38;;;;;;;2.8;1.2;;;;;;;;;;;;;
2019/08/19 07:41:12;;;;;;;2.5;1.5;;;;;;;;;;;;;
2019/08/19 07:43:34;;;;;;;3.5;1.5;;;;;;;;;;;;;
2019/08/19 07:45:54;;;;;;;2.5;1.2;;;;;;;;;;;;;
2019/08/19 07:48:30;;;;;;;2.6;1.4;;;;;;;;;;;;;
2019/08/19 07:50:54;;;;;;;3.2;1.4;;;;;;;;;;;;;
2019/08/19 07:53:19;;;;;;;3;1.1;;;;;;;;;;;;;
2019/08/19 07:55:46;;;;;;;2.8;1.2;;;;;;;;;;;;;
2019/08/19 07:58:11;;;;;;;2.1;1.3;;;;;;;;;;;;;
2019/08/19 08:00:46;;;;;;;2.5;1.2;;;;;;;;;;;;;
2019/08/19 08:03:02;;;;;;;2.3;1.3;;;;;;;;;;;;;
2019/08/19 08:05:29;;;;;;;1.3;1;;;;;;;;;;;;;
2019/08/19 08:07:53;;;;;;;3.6;1.4;;;;;;;;;;;;;
2019/08/19 08:10:21;;;;;;;2.7;1.4;;;;;;;;;;;;;
2019/08/19 08:12:49;;;;;;;5.5;1.4;;;;;;;;;;;;;
2019/08/19 08:15:17;;;;;;;5.4;1.5;;;;;;;;;;;;;
2019/08/19 08:17:47;;;;;;;2.1;1.4;;;;;;;;;;;;;
2019/08/19 08:20:11;;;;;;;3.8;1.2;;;;;;;;;;;;;
2019/08/19 08:22:38;;;;;;;5.6;1.6;;;;;;;;;;;;;
2019/08/19 08:25:26;;;;;;;2.2;1.4;;;;;;;;;;;;;
2019/08/19 08:27:49;;;;;;;3.7;1.7;;;;;;;;;;;;;
2019/08/19 08:30:17;;;;;;;3.5;1.7;;;;;;;;;;;;;
2019/08/19 08:32:43;;;;;;;3.9;1.8;;;;;;;;;;;;;
2019/08/19 08:35:09;;;;;;;3.5;1.6;;;;;;;;;;;;;
2019/08/19 08:37:32;;;;;;;4.7;1.6;;;;;;;;;;;;;
2019/08/19 08:40:00;;;;;;;2.2;1.3;;;;;;;;;;;;;
2019/08/19 08:42:24;;;;;;;2.5;1.2;;;;;;;;;;;;;
2019/08/19 08:44:50;;;;;;;4.4;1.6;;;;;;;;;;;;;
2019/08/19 08:47:18;;;;;;;2.9;1.2;;;;;;;;;;;;;
2019/08/19 08:49:44;;;;;;;2.6;1.4;;;;;;;;;;;;;
2019/08/19 08:52:07;;;;;;;3.1;1.3;;;;;;;;;;;;;
2019/08/19 08:54:32;;;;;;;3.4;1.2;;;;;;;;;;;;;
2019/08/19 08:57:03;;;;;;;3;1.5;;;;;;;;;;;;;
2019/08/19 08:59:27;;;;;;;2.3;1.3;;;;;;;;;;;;;
2019/08/19 09:01:54;;;;;;;2.1;1.2;;;;;;;;;;;;;
2019/08/19 09:04:19;;;;;;;3.5;1.3;;;;;;;;;;;;;
2019/08/19 09:06:46;;;;;;;5.6;1.5;;;;;;;;;;;;;
2019/08/19 09:09:10;;;;;;;2.7;1.3;;;;;;;;;;;;;
2019/08/19 09:11:37;;;;;;;3.9;1.3;;;;;;;;;;;;;
2019/08/19 09:14:02;;;;;;;2.7;1.2;;;;;;;;;;;;;
2019/08/19 09:16:25;;;;;;;3.7;1.1;;;;;;;;;;;;;
2019/08/19 09:18:50;;;;;;;2.6;1.5;;;;;;;;;;;;;
2019/08/19 09:21:18;;;;;;;3.3;1.4;;;;;;;;;;;;;
2019/08/19 09:23:42;;;;;;;2.2;1.7;;;;;;;;;;;;;
2019/08/19 09:26:07;;;;;;;3.2;1.4;;;;;;;;;;;;;
2019/08/19 09:28:37;;;;;;;2.5;1.4;;;;;;;;;;;;;
2019/08/19 09:31:02;;;;;;;2.3;1.4;;;;;;;;;;;;;
2019/08/19 09:33:26;;;;;;;2.6;1.3;;;;;;;;;;;;;
2019/08/19 09:35:51;;;;;;;4.3;1.4;;;;;;;;;;;;;
2019/08/19 09:38:23;;;;;;;1.6;1.1;;;;;;;;;;;;;
2019/08/19 09:40:44;;;;;;;2.5;1.2;;;;;;;;;;;;;
2019/08/19 09:43:07;;;;;;;3.1;1.2;;;;;;;;;;;;;
2019/08/19 09:45:36;;;;;;;1.6;1;;;;;;;;;;;;;
2019/08/19 09:48:25;;;;;;;1.3;0.9;;;;;;;;;;;;;
2019/08/19 09:50:46;;;;;;;1.7;1.1;;;;;;;;;;;;;
2019/08/19 09:53:12;;;;;;;1;0.9;;;;;;;;;;;;;
2019/08/19 09:55:31;;;;;;;2.2;1;;;;;;;;;;;;;
2019/08/19 09:57:55;;;;;;;2.9;1;;;;;;;;;;;;;
2019/08/19 10:00:25;;;;;;;2.4;1;;;;;;;;;;;;;
2019/08/19 10:02:50;;;;;;;1.4;1;;;;;;;;;;;;;
2019/08/19 10:05:36;;;;;;;2.3;0.9;;;;;;;;;;;;;
2019/08/19 10:08:05;;;;;;;1.3;0.8;;;;;;;;;;;;;
2019/08/19 10:10:33;;;;;;;1.8;0.9;;;;;;;;;;;;;
2019/08/19 10:13:01;;;;;;;1;0.9;;;;;;;;;;;;;
2019/08/19 10:15:23;;;;;;;1.7;1;;;;;;;;;;;;;
2019/08/19 10:17:47;;;;;;;1.8;1;;;;;;;;;;;;;
2019/08/19 10:20:15;;;;;;;1.7;1;;;;;;;;;;;;;
2019/08/19 10:22:51;;;;;;;1.9;1;;;;;;;;;;;;;
2019/08/19 10:25:11;;;;;;;3.4;1;;;;;;;;;;;;;
2019/08/19 10:27:41;;;;;;;1.8;1.1;;;;;;;;;;;;;
2019/08/19 10:30:05;;;;;;;2.2;1.1;;;;;;;;;;;;;
2019/08/19 10:32:30;;;;;;;3.2;1.1;;;;;;;;;;;;;
2019/08/19 10:34:54;;;;;;;1.6;1;;;;;;;;;;;;;
2019/08/19 10:37:45;;;;;;;3.4;1.1;;;;;;;;;;;;;
2019/08/19 10:39:49;;;;;;;2.4;1.1;;;;;;;;;;;;;
2019/08/19 10:42:19;;;;;;;1.6;1;;;;;;;;;;;;;
2019/08/19 10:44:43;;;;;;;1.8;1.1;;;;;;;;;;;;;
2019/08/19 10:47:08;;;;;;;2.1;1.2;;;;;;;;;;;;;
2019/08/19 10:49:32;;;;;;;2.5;1.1;;;;;;;;;;;;;
2019/08/19 10:52:25;;;;;;;1.8;1.1;;;;;;;;;;;;;
2019/08/19 10:54:44;;;;;;;1.9;1.1;;;;;;;;;;;;;
2019/08/19 10:57:27;;;;;;;4.2;1.3;;;;;;;;;;;;;
2019/08/19 10:59:50;;;;;;;2.8;1.4;;;;;;;;;;;;;
2019/08/19 11:02:25;;;;;;;3;1.2;;;;;;;;;;;;;
2019/08/19 11:04:49;;;;;;;1.7;1.1;;;;;;;;;;;;;
2019/08/19 11:07:18;;;;;;;2.8;1.1;;;;;;;;;;;;;
2019/08/19 11:09:41;;;;;;;2.4;1.1;;;;;;;;;;;;;
2019/08/19 11:12:06;;;;;;;2.2;1.3;;;;;;;;;;;;;
2019/08/19 11:14:41;;;;;;;2.9;1.1;;;;;;;;;;;;;
2019/08/19 11:17:10;;;;;;;3.1;1.3;;;;;;;;;;;;;
2019/08/19 11:19:36;;;;;;;2.8;1.3;;;;;;;;;;;;;
2019/08/19 11:22:02;;;;;;;1.8;1.1;;;;;;;;;;;;;
2019/08/19 11:24:41;;;;;;;2.2;1.3;;;;;;;;;;;;;
2019/08/19 11:26:51;;;;;;;1.5;1.3;;;;;;;;;;;;;
2019/08/19 11:29:15;;;;;;;2.9;1.3;;;;;;;;;;;;;
2019/08/19 11:31:44;;;;;;;3.1;1.5;;;;;;;;;;;;;
2019/08/19 11:34:07;;;;;;;2.4;1.3;;;;;;;;;;;;;
2019/08/19 11:36:37;;;;;;;4.3;1.5;;;;;;;;;;;;;
2019/08/19 11:39:06;;;;;;;4.2;1.4;;;;;;;;;;;;;
2019/08/19 11:41:31;;;;;;;3.3;1.3;;;;;;;;;;;;;
2019/08/19 11:43:55;;;;;;;2.4;1.3;;;;;;;;;;;;;
2019/08/19 11:46:24;;;;;;;2.5;1.2;;;;;;;;;;;;;
2019/08/19 11:49:01;;;;;;;1.2;1.1;;;;;;;;;;;;;
2019/08/19 11:51:20;;;;;;;1.6;1.3;;;;;;;;;;;;;
2019/08/19 11:53:44;;;;;;;5.7;1.5;;;;;;;;;;;;;
2019/08/19 11:56:14;;;;;;;2.8;1.2;;;;;;;;;;;;;
2019/08/19 11:58:36;;;;;;;2.2;1.4;;;;;;;;;;;;;
2019/08/19 12:01:03;;;;;;;2.6;1.5;;;;;;;;;;;;;
2019/08/19 12:03:27;;;;;;;4.2;1.3;;;;;;;;;;;;;
2019/08/19 12:06:27;;;;;;;1.7;1.1;;;;;;;;;;;;;
2019/08/19 12:08:43;;;;;;;3.3;1.4;;;;;;;;;;;;;
2019/08/19 12:11:10;;;;;;;3;1.1;;;;;;;;;;;;;
2019/08/19 12:13:37;;;;;;;1.4;1.1;;;;;;;;;;;;;
2019/08/19 12:16:01;;;;;;;1.9;1.2;;;;;;;;;;;;;
2019/08/19 12:18:33;;;;;;;2.2;0.9;;;;;;;;;;;;;
2019/08/19 12:20:58;;;;;;;1.9;1.3;;;;;;;;;;;;;
2019/08/19 12:23:21;;;;;;;1.7;1.2;;;;;;;;;;;;;
2019/08/19 12:25:52;;;;;;;1.7;1;;;;;;;;;;;;;
2019/08/19 12:28:25;;;;;;;2.7;1.2;;;;;;;;;;;;;
2019/08/19 12:30:56;;;;;;;1.7;1.1;;;;;;;;;;;;;
2019/08/19 12:33:21;;;;;;;2.1;1.1;;;;;;;;;;;;;
2019/08/19 12:35:46;;;;;;;1.5;1.1;;;;;;;;;;;;;
2019/08/19 12:38:27;;;;;;;1.7;1;;;;;;;;;;;;;
2019/08/19 12:40:46;;;;;;;1.5;1.2;;;;;;;;;;;;;
2019/08/19 12:43:12;;;;;;;1.7;1.1;;;;;;;;;;;;;
2019/08/19 12:45:40;;;;;;;3;1.1;;;;;;;;;;;;;
2019/08/19 12:48:27;;;;;;;2;1;;;;;;;;;;;;;
2019/08/19 12:50:39;;;;;;;3;1.2;;;;;;;;;;;;;
2019/08/19 12:53:04;;;;;;;2.8;1.1;;;;;;;;;;;;;
2019/08/19 12:55:34;;;;;;;2.4;1.2;;;;;;;;;;;;;
2019/08/19 12:57:58;;;;;;;3.1;1.1;;;;;;;;;;;;;
2019/08/19 13:00:22;;;;;;;1.8;1.2;;;;;;;;;;;;;
2019/08/19 13:02:56;;;;;;;2.6;1.2;;;;;;;;;;;;;
2019/08/19 13:05:41;;;;;;;1.8;1.2;;;;;;;;;;;;;
2019/08/19 13:07:52;;;;;;;1.3;1.1;;;;;;;;;;;;;
2019/08/19 13:10:45;;;;;;;2.3;1.1;;;;;;;;;;;;;
2019/08/19 13:13:07;;;;;;;1.3;1.1;;;;;;;;;;;;;
2019/08/19 13:15:35;;;;;;;1.6;1;;;;;;;;;;;;;
2019/08/19 13:18:12;;;;;;;2.1;1;;;;;;;;;;;;;
2019/08/19 13:20:25;;;;;;;1.6;1;;;;;;;;;;;;;
2019/08/19 13:22:51;;;;;;;2.5;1;;;;;;;;;;;;;
2019/08/19 13:25:17;;;;;;;2.1;1.1;;;;;;;;;;;;;
2019/08/19 13:27:46;;;;;;;1.5;1.1;;;;;;;;;;;;;
2019/08/19 13:30:28;;;;;;;1.9;1;;;;;;;;;;;;;
2019/08/19 13:32:51;;;;;;;1.3;1;;;;;;;;;;;;;
2019/08/19 13:35:43;;;;;;;2;0.9;;;;;;;;;;;;;
2019/08/19 13:37:53;;;;;;;2.7;1;;;;;;;;;;;;;
2019/08/19 13:40:25;;;;;;;1.2;1;;;;;;;;;;;;;
2019/08/19 13:42:51;;;;;;;1.7;1;;;;;;;;;;;;;
2019/08/19 13:45:16;;;;;;;1.1;1;;;;;;;;;;;;;
2019/08/19 13:47:48;;;;;;;1.2;1;;;;;;;;;;;;;
2019/08/19 13:50:12;;;;;;;1.4;1;;;;;;;;;;;;;
2019/08/19 13:52:38;;;;;;;2.5;1.1;;;;;;;;;;;;;
2019/08/19 13:55:06;;;;;;;1.5;1.1;;;;;;;;;;;;;
2019/08/19 13:57:55;;;;;;;1.3;1.1;;;;;;;;;;;;;
2019/08/19 14:00:15;;;;;;;2.6;0.9;;;;;;;;;;;;;
2019/08/19 14:02:36;;;;;;;1.4;0.9;;;;;;;;;;;;;
2019/08/19 14:05:26;;;;;;;2.4;1.1;;;;;;;;;;;;;
2019/08/19 14:08:00;;;;;;;1;0.9;;;;;;;;;;;;;
2019/08/19 14:10:21;;;;;;;1.8;1;;;;;;;;;;;;;
2019/08/19 14:12:42;;;;;;;2.5;1.1;;;;;;;;;;;;;
2019/08/19 14:15:22;;;;;;;1.2;1;;;;;;;;;;;;;
2019/08/19 14:17:44;;;;;;;2.4;0.9;;;;;;;;;;;;;
2019/08/19 14:20:08;;;;;;;1.2;0.9;;;;;;;;;;;;;
2019/08/19 14:22:41;;;;;;;2.2;0.9;;;;;;;;;;;;;
2019/08/19 14:27:29;;;;;;;1.5;0.9;;;;;;;;;;;;;
2019/08/19 14:29:56;;;;;;;1.9;1;;;;;;;;;;;;;
2019/08/19 14:32:28;;;;;;;1.5;1.1;;;;;;;;;;;;;
2019/08/19 14:34:51;;;;;;;2;1;;;;;;;;;;;;;
2019/08/19 14:37:47;;;;;;;1.3;1;;;;;;;;;;;;;
2019/08/19 14:40:23;;;;;;;1.8;1;;;;;;;;;;;;;
2019/08/19 14:43:02;;;;;;;2.3;1.2;;;;;;;;;;;;;
2019/08/19 14:45:23;;;;;;;2.3;1;;;;;;;;;;;;;
2019/08/19 14:50:13;;;;;;;2.8;1.1;;;;;;;;;;;;;
2019/08/19 14:52:46;;;;;;;2.3;1;;;;;;;;;;;;;
2019/08/19 14:55:12;;;;;;;1.3;1;;;;;;;;;;;;;
2019/08/19 14:57:40;;;;;;;1.7;1;;;;;;;;;;;;;
2019/08/19 15:00:04;;;;;;;2.9;1.2;;;;;;;;;;;;;
2019/08/19 15:02:36;;;;;;;1.9;1.1;;;;;;;;;;;;;
2019/08/19 15:05:11;;;;;;;2.3;1;;;;;;;;;;;;;
2019/08/19 15:07:34;;;;;;;1.6;1.2;;;;;;;;;;;;;
2019/08/19 15:09:54;;;;;;;1.7;1;;;;;;;;;;;;;
2019/08/19 15:12:18;;;;;;;1.5;1.1;;;;;;;;;;;;;
2019/08/19 15:14:49;;;;;;;4.2;1.2;;;;;;;;;;;;;
2019/08/19 15:17:18;;;;;;;2.7;1.1;;;;;;;;;;;;;
2019/08/19 15:19:39;;;;;;;2.9;1.4;;;;;;;;;;;;;
2019/08/19 15:22:03;;;;;;;1.5;1.1;;;;;;;;;;;;;
2019/08/19 15:24:35;;;;;;;1.3;1.1;;;;;;;;;;;;;
2019/08/19 15:26:58;;;;;;;1.7;1.1;;;;;;;;;;;;;
2019/08/19 15:29:33;;;;;;;1.9;1.2;;;;;;;;;;;;;
2019/08/19 15:31:58;;;;;;;1.7;1.2;;;;;;;;;;;;;
2019/08/19 15:34:29;;;;;;;1.9;1.3;;;;;;;;;;;;;
2019/08/19 15:36:57;;;;;;;1.8;1.3;;;;;;;;;;;;;
2019/08/19 15:39:29;;;;;;;2.1;1.2;;;;;;;;;;;;;
2019/08/19 15:41:55;;;;;;;2.1;1.3;;;;;;;;;;;;;
2019/08/19 15:44:22;;;;;;;3.3;1.4;;;;;;;;;;;;;
2019/08/19 15:47:01;;;;;;;2.2;1.5;;;;;;;;;;;;;
2019/08/19 15:49:25;;;;;;;1.8;1.3;;;;;;;;;;;;;
2019/08/19 15:52:00;;;;;;;2.6;1.4;;;;;;;;;;;;;
2019/08/19 15:54:17;;;;;;;1.9;1.4;;;;;;;;;;;;;
2019/08/19 15:56:48;;;;;;;2.4;1.5;;;;;;;;;;;;;
2019/08/19 15:59:13;;;;;;;2.6;1.7;;;;;;;;;;;;;
2019/08/19 16:01:42;;;;;;;5.8;2;;;;;;;;;;;;;
2019/08/19 16:04:06;;;;;;;4;1.9;;;;;;;;;;;;;
2019/08/19 16:06:33;;;;;;;2.1;1.6;;;;;;;;;;;;;
2019/08/19 16:09:04;;;;;;;2.4;1.5;;;;;;;;;;;;;
2019/08/19 16:11:26;;;;;;;2.9;1.6;;;;;;;;;;;;;
2019/08/19 16:13:56;;;;;;;2.7;1.4;;;;;;;;;;;;;
2019/08/19 16:16:34;;;;;;;2.1;1.4;;;;;;;;;;;;;
2019/08/19 16:19:08;;;;;;;1.8;1.2;;;;;;;;;;;;;
2019/08/19 16:21:29;;;;;;;3;1.3;;;;;;;;;;;;;
2019/08/19 16:23:57;;;;;;;3.2;1.3;;;;;;;;;;;;;
2019/08/19 16:26:20;;;;;;;2.3;1.3;;;;;;;;;;;;;
2019/08/19 16:28:46;;;;;;;3.3;1.4;;;;;;;;;;;;;
2019/08/19 16:31:10;;;;;;;1.7;1.5;;;;;;;;;;;;;
2019/08/19 16:33:41;;;;;;;3.1;1.5;;;;;;;;;;;;;
2019/08/19 16:36:11;;;;;;;3.8;1.7;;;;;;;;;;;;;
2019/08/19 16:38:39;;;;;;;2.5;1.4;;;;;;;;;;;;;
2019/08/19 16:41:11;;;;;;;2.5;1.5;;;;;;;;;;;;;
2019/08/19 16:43:30;;;;;;;2.6;1.4;;;;;;;;;;;;;
2019/08/19 16:45:57;;;;;;;2.7;1.5;;;;;;;;;;;;;
2019/08/19 16:48:21;;;;;;;3.2;1.4;;;;;;;;;;;;;
2019/08/19 16:50:49;;;;;;;2.7;1.6;;;;;;;;;;;;;
2019/08/19 16:53:14;;;;;;;3.2;1.4;;;;;;;;;;;;;
2019/08/19 16:55:43;;;;;;;2.4;1.4;;;;;;;;;;;;;
2019/08/19 16:58:11;;;;;;;2.3;1.5;;;;;;;;;;;;;
2019/08/19 17:00:39;;;;;;;3;1.6;;;;;;;;;;;;;
2019/08/19 17:03:32;;;;;;;2.6;1.2;;;;;;;;;;;;;
2019/08/19 17:08:42;;;;;;;3.1;1.6;;;;;;;;;;;;;
2019/08/19 17:11:02;;;;;;;2.4;1.7;;;;;;;;;;;;;
2019/08/19 17:13:30;;;;;;;7;2.6;;;;;;;;;;;;;
2019/08/19 17:15:56;;;;;;;4.5;2;;;;;;;;;;;;;
2019/08/19 17:18:29;;;;;;;4.7;2.5;;;;;;;;;;;;;
2019/08/19 17:21:00;;;;;;;4.2;2.4;;;;;;;;;;;;;
2019/08/19 17:23:25;;;;;;;5.9;2.3;;;;;;;;;;;;;
2019/08/19 17:25:57;;;;;;;6;2.9;;;;;;;;;;;;;
2019/08/19 17:28:18;;;;;;;5.1;2.6;;;;;;;;;;;;;
2019/08/19 17:30:46;;;;;;;4.9;2.5;;;;;;;;;;;;;
2019/08/19 17:33:25;;;;;;;4.1;2.6;;;;;;;;;;;;;
2019/08/19 17:35:44;;;;;;;3.8;2.2;;;;;;;;;;;;;
2019/08/19 17:38:08;;;;;;;5.4;2.5;;;;;;;;;;;;;
2019/08/19 17:40:31;;;;;;;4;2.5;;;;;;;;;;;;;
2019/08/19 17:42:57;;;;;;;4.4;2.5;;;;;;;;;;;;;
2019/08/19 17:45:24;;;;;;;3.7;2.3;;;;;;;;;;;;;
2019/08/19 17:47:50;;;;;;;4.7;2.2;;;;;;;;;;;;;
2019/08/19 17:50:20;;;;;;;4.3;2.4;;;;;;;;;;;;;
2019/08/19 17:52:47;;;;;;;5.6;2.8;;;;;;;;;;;;;
2019/08/19 17:55:15;;;;;;;4.9;2.6;;;;;;;;;;;;;
2019/08/19 17:57:39;;;;;;;6.4;2.8;;;;;;;;;;;;;
2019/08/19 18:00:31;;;;;;;5.7;2.9;;;;;;;;;;;;;
2019/08/19 18:03:03;;;;;;;4.8;2.7;;;;;;;;;;;;;
2019/08/19 18:05:27;;;;;;;4.7;2.7;;;;;;;;;;;;;
2019/08/19 18:07:56;;;;;;;3;2.4;;;;;;;;;;;;;
2019/08/19 18:10:22;;;;;;;3.7;2.4;;;;;;;;;;;;;
2019/08/19 18:12:52;;;;;;;3.1;2.5;;;;;;;;;;;;;
2019/08/19 18:15:19;;;;;;;4.6;2.7;;;;;;;;;;;;;
2019/08/19 18:17:43;;;;;;;6;2.8;;;;;;;;;;;;;
2019/08/19 18:20:07;;;;;;;3.1;2.6;;;;;;;;;;;;;
2019/08/19 18:22:38;;;;;;;5.3;2.5;;;;;;;;;;;;;
2019/08/19 18:25:10;;;;;;;4;2.8;;;;;;;;;;;;;
2019/08/19 18:27:35;;;;;;;3.6;2.3;;;;;;;;;;;;;
2019/08/19 18:30:01;;;;;;;3.5;2.4;;;;;;;;;;;;;
2019/08/19 18:32:28;;;;;;;4.5;2.5;;;;;;;;;;;;;
2019/08/19 18:34:54;;;;;;;4;2.5;;;;;;;;;;;;;
2019/08/19 18:37:23;;;;;;;4.1;2.4;;;;;;;;;;;;;
2019/08/19 18:42:12;;;;;;;4.2;2.2;;;;;;;;;;;;;
2019/08/19 18:44:40;;;;;;;3.9;2.2;;;;;;;;;;;;;
2019/08/19 18:47:02;;;;;;;4.9;2.5;;;;;;;;;;;;;
2019/08/19 18:49:30;;;;;;;5;2.6;;;;;;;;;;;;;